Time;durP1;ratioP1;P1;durP2;ratioP2;P2;SDS_P1;SDS_P2;PMS_P1;PMS_P2;Temp;Humidity;BMP_temperature;BMP_pressure;BME280_temperature;BME280_humidity;BME280_pressure;Samples;Min_cycle;Max_cycle;Signal;HPM_P1;HPM_P2
2022/05/08 00:02:21;;;;;;;24.42;4.82;;;6.70;76.90;;;;;;5083340;28;20036;-67
2022/05/08 00:04:51;;;;;;;21.80;4.13;;;6.70;76.60;;;;;;5050284;28;20499;-67
2022/05/08 00:07:17;;;;;;;18.85;4.78;;;6.70;76.40;;;;;;5034907;28;20581;-66
2022/05/08 00:09:44;;;;;;;23.40;4.30;;;6.60;76.30;;;;;;5034530;28;20035;-67
2022/05/08 00:12:13;;;;;;;23.73;4.82;;;6.60;76.40;;;;;;5053447;28;20048;-67
2022/05/08 00:14:42;;;;;;;23.27;5.20;;;6.60;76.60;;;;;;5064640;28;20054;-67
2022/05/08 00:17:13;;;;;;;18.40;5.28;;;6.60;76.80;;;;;;5087347;28;20488;-67
2022/05/08 00:19:40;;;;;;;34.95;8.88;;;6.50;76.70;;;;;;5058994;28;20086;-67
2022/05/08 00:22:06;;;;;;;22.52;7.28;;;6.50;76.60;;;;;;5055846;28;20044;-67
2022/05/08 00:24:35;;;;;;;28.00;8.57;;;6.40;76.90;;;;;;5042529;28;20032;-67
2022/05/08 00:27:01;;;;;;;26.83;9.27;;;6.40;77.80;;;;;;5058032;28;20528;-66
2022/05/08 00:29:26;;;;;;;23.37;10.17;;;6.30;78.30;;;;;;5082977;28;20051;-66
2022/05/08 00:31:52;;;;;;;29.83;9.20;;;6.30;79.00;;;;;;5060539;28;20716;-67
2022/05/08 00:34:18;;;;;;;19.00;6.83;;;6.30;78.60;;;;;;5042789;28;20040;-67
2022/05/08 00:36:44;;;;;;;23.45;6.20;;;6.20;78.10;;;;;;5045205;28;20043;-67
2022/05/08 00:39:10;;;;;;;27.13;5.70;;;6.30;77.90;;;;;;5039557;28;20055;-67
2022/05/08 00:41:36;;;;;;;26.30;6.43;;;6.30;78.30;;;;;;5064393;28;20029;-67
2022/05/08 00:44:03;;;;;;;28.27;4.97;;;6.30;78.00;;;;;;5072939;28;20361;-67
2022/05/08 00:46:29;;;;;;;29.02;5.38;;;6.30;77.80;;;;;;5035576;28;20106;-66
2022/05/08 00:48:57;;;;;;;27.65;5.25;;;6.30;77.70;;;;;;5065770;28;20059;-67
2022/05/08 00:51:24;;;;;;;27.58;5.68;;;6.30;77.90;;;;;;5063332;28;20048;-66
2022/05/08 00:53:51;;;;;;;24.88;5.43;;;6.30;77.70;;;;;;5039309;28;20492;-66
2022/05/08 00:56:19;;;;;;;25.27;4.93;;;6.30;77.80;;;;;;5082603;28;20080;-67
2022/05/08 00:58:47;;;;;;;24.88;4.47;;;6.20;77.90;;;;;;5069944;28;20182;-67
2022/05/08 01:01:14;;;;;;;17.83;4.97;;;6.20;77.80;;;;;;5058076;28;20036;-67
2022/05/08 01:03:40;;;;;;;22.67;6.18;;;6.10;77.80;;;;;;5093138;28;20044;-67
2022/05/08 01:06:11;;;;;;;22.38;5.95;;;6.10;77.90;;;;;;5087217;28;20668;-67
2022/05/08 01:08:39;;;;;;;20.02;5.18;;;6.00;78.00;;;;;;5031442;28;20515;-67
2022/05/08 01:11:06;;;;;;;21.13;5.32;;;6.00;78.00;;;;;;5049955;28;20148;-67
2022/05/08 01:13:32;;;;;;;19.38;6.07;;;6.00;78.00;;;;;;5064570;28;20044;-66
2022/05/08 01:15:58;;;;;;;24.52;6.65;;;6.00;78.10;;;;;;5055627;28;20044;-67
2022/05/08 01:18:25;;;;;;;20.73;5.50;;;6.00;78.20;;;;;;5051536;28;20055;-67
2022/05/08 01:20:50;;;;;;;21.80;5.00;;;6.00;78.20;;;;;;5035596;28;20130;-67
2022/05/08 01:23:18;;;;;;;23.93;5.03;;;6.00;78.20;;;;;;5060452;28;20194;-67
2022/05/08 01:25:53;;;;;;;26.48;5.65;;;6.00;78.10;;;;;;5092393;28;20037;-67
2022/05/08 01:28:20;;;;;;;22.23;5.10;;;6.00;78.20;;;;;;5080859;28;20063;-67
2022/05/08 01:30:48;;;;;;;17.98;4.40;;;6.00;78.20;;;;;;5067878;28;20040;-67
2022/05/08 01:33:14;;;;;;;20.05;4.30;;;6.00;78.10;;;;;;5046203;28;20133;-66
2022/05/08 01:35:42;;;;;;;24.13;4.93;;;6.00;78.20;;;;;;5040002;28;20067;-66
2022/05/08 01:38:08;;;;;;;26.50;5.10;;;5.90;78.10;;;;;;5087517;28;20045;-66
2022/05/08 01:40:34;;;;;;;25.17;4.75;;;5.90;78.20;;;;;;5035361;28;20032;-66
2022/05/08 01:43:00;;;;;;;16.67;4.30;;;5.90;78.20;;;;;;5061861;28;20040;-66
2022/05/08 01:45:26;;;;;;;17.60;4.67;;;5.90;78.30;;;;;;5085830;28;20167;-67
2022/05/08 01:50:38;;;;;;;18.73;5.18;;;6.00;78.50;;;;;;5061644;28;20098;-67
2022/05/08 01:53:03;;;;;;;20.95;5.07;;;6.00;78.20;;;;;;5045833;28;20047;-67
2022/05/08 01:55:29;;;;;;;27.70;5.10;;;6.00;78.30;;;;;;5065294;28;20060;-67
2022/05/08 01:57:55;;;;;;;20.23;4.95;;;6.00;78.10;;;;;;5045912;28;20163;-67
2022/05/08 02:00:22;;;;;;;30.47;6.00;;;6.00;78.00;;;;;;5060379;28;20508;-66
2022/05/08 02:02:49;;;;;;;25.88;5.32;;;6.10;78.40;;;;;;5067647;28;20771;-66
2022/05/08 02:05:19;;;;;;;24.58;4.95;;;6.00;78.00;;;;;;5078296;28;20044;-66
2022/05/08 02:07:46;;;;;;;21.70;4.85;;;6.00;78.10;;;;;;5036360;28;20284;-66
2022/05/08 02:10:16;;;;;;;25.65;5.45;;;6.00;78.00;;;;;;5088932;28;20048;-67
2022/05/08 02:12:43;;;;;;;21.65;5.00;;;6.00;77.80;;;;;;5057496;28;20044;-67
2022/05/08 02:15:10;;;;;;;20.92;4.60;;;6.00;77.80;;;;;;5048134;28;20130;-67
2022/05/08 02:17:37;;;;;;;16.23;4.32;;;6.00;77.80;;;;;;5027578;28;20083;-67
2022/05/08 02:20:06;;;;;;;20.48;4.75;;;5.90;77.90;;;;;;5040904;28;20082;-67
2022/05/08 02:22:36;;;;;;;20.15;4.13;;;5.90;77.90;;;;;;5043170;28;20046;-67
2022/05/08 02:25:03;;;;;;;21.10;4.57;;;5.90;77.90;;;;;;5046216;28;20128;-67
2022/05/08 02:27:39;;;;;;;18.30;4.18;;;5.80;77.90;;;;;;5038555;28;20062;-66
2022/05/08 02:30:11;;;;;;;14.60;3.72;;;5.80;77.90;;;;;;5065989;28;20062;-67
2022/05/08 02:32:38;;;;;;;16.48;4.10;;;5.80;77.80;;;;;;5047465;28;20048;-67
2022/05/08 02:35:06;;;;;;;18.13;4.85;;;5.70;77.90;;;;;;5062297;28;20051;-67
2022/05/08 02:37:32;;;;;;;21.20;4.13;;;5.60;77.90;;;;;;5094969;28;20389;-67
2022/05/08 02:39:58;;;;;;;18.42;4.13;;;5.60;78.00;;;;;;5087528;28;20488;-67
2022/05/08 02:42:23;;;;;;;17.57;4.63;;;5.60;77.90;;;;;;5051619;28;20036;-67
2022/05/08 02:44:50;;;;;;;19.27;4.70;;;5.60;77.90;;;;;;5084950;28;20404;-67
2022/05/08 02:47:15;;;;;;;16.15;4.53;;;5.50;78.00;;;;;;5060297;28;20046;-67
2022/05/08 02:49:41;;;;;;;21.23;5.47;;;5.50;78.00;;;;;;5072626;28;20484;-67
2022/05/08 02:52:07;;;;;;;19.87;5.37;;;5.50;78.10;;;;;;5050804;28;20580;-67
2022/05/08 02:54:33;;;;;;;17.37;3.90;;;5.40;78.20;;;;;;5039179;28;20032;-67
2022/05/08 02:59:42;;;;;;;16.23;3.95;;;5.40;78.10;;;;;;5049982;28;20044;-67
2022/05/08 03:02:09;;;;;;;23.00;4.40;;;5.40;78.20;;;;;;5049500;28;20058;-67
2022/05/08 03:04:35;;;;;;;18.88;4.65;;;5.40;78.30;;;;;;5031419;28;20054;-67
2022/05/08 03:07:03;;;;;;;21.38;4.53;;;5.40;78.20;;;;;;5029360;28;20045;-67
2022/05/08 03:09:29;;;;;;;20.02;5.05;;;5.40;78.10;;;;;;5065297;28;20039;-67
2022/05/08 03:11:55;;;;;;;20.25;4.57;;;5.40;78.20;;;;;;5060988;28;20043;-67
2022/05/08 03:14:21;;;;;;;17.23;4.13;;;5.30;78.20;;;;;;5032136;28;20045;-67
2022/05/08 03:16:50;;;;;;;18.53;4.57;;;5.30;78.20;;;;;;5032458;28;20037;-66
2022/05/08 03:19:17;;;;;;;15.93;4.05;;;5.30;78.40;;;;;;5067994;28;20442;-67
2022/05/08 03:21:43;;;;;;;18.15;4.20;;;5.20;78.40;;;;;;5095421;28;20510;-67
2022/05/08 03:24:09;;;;;;;14.00;3.47;;;5.20;78.50;;;;;;5052981;28;20033;-67
2022/05/08 03:26:36;;;;;;;16.47;3.60;;;5.20;78.50;;;;;;5056273;28;20439;-67
2022/05/08 03:29:03;;;;;;;13.90;3.00;;;5.10;78.60;;;;;;5069672;28;20044;-67
2022/05/08 03:31:28;;;;;;;12.75;3.25;;;5.10;78.90;;;;;;5038660;28;20144;-67
2022/05/08 03:33:55;;;;;;;17.37;4.60;;;5.10;79.20;;;;;;5060786;28;20114;-67
2022/05/08 03:36:21;;;;;;;15.02;3.30;;;5.10;79.10;;;;;;5062873;28;20055;-67
2022/05/08 03:38:47;;;;;;;16.50;4.13;;;5.00;79.00;;;;;;5046388;28;20065;-67
2022/05/08 03:41:16;;;;;;;14.38;3.25;;;5.00;79.20;;;;;;5043752;28;20063;-67
2022/05/08 03:43:46;;;;;;;13.50;3.90;;;5.00;79.30;;;;;;5087111;28;20036;-67
2022/05/08 03:46:13;;;;;;;19.02;3.78;;;5.00;79.20;;;;;;5051764;28;20719;-67
2022/05/08 03:48:39;;;;;;;17.38;3.55;;;5.00;79.10;;;;;;5036407;28;20068;-67
2022/05/08 03:51:05;;;;;;;13.88;3.17;;;5.00;79.10;;;;;;5028294;28;20131;-67
2022/05/08 03:53:31;;;;;;;15.10;3.33;;;5.00;78.90;;;;;;5050907;28;20119;-67
2022/05/08 03:55:57;;;;;;;11.43;3.50;;;5.00;78.90;;;;;;5052578;28;20056;-67
2022/05/08 03:58:23;;;;;;;14.67;3.73;;;5.00;78.80;;;;;;5040273;28;20515;-67
2022/05/08 04:00:48;;;;;;;22.30;3.63;;;4.90;78.90;;;;;;5054873;28;20145;-67
2022/05/08 04:03:14;;;;;;;14.10;3.20;;;4.90;79.10;;;;;;5038456;28;20039;-67
2022/05/08 04:05:40;;;;;;;16.07;3.23;;;4.90;79.00;;;;;;5057557;28;20040;-67
2022/05/08 04:08:06;;;;;;;19.80;3.77;;;4.90;79.00;;;;;;5028133;28;20545;-67
2022/05/08 04:10:33;;;;;;;11.35;2.97;;;4.90;79.00;;;;;;5092304;28;20480;-67
2022/05/08 04:12:59;;;;;;;12.00;2.50;;;4.90;79.40;;;;;;5074014;28;20487;-67
2022/05/08 04:18:09;;;;;;;14.50;3.28;;;5.00;79.30;;;;;;5042970;28;20092;-67
2022/05/08 04:20:35;;;;;;;13.90;3.10;;;5.00;79.10;;;;;;5041825;28;20480;-67
2022/05/08 04:25:46;;;;;;;12.93;3.20;;;5.00;79.10;;;;;;5084037;28;20131;-67
2022/05/08 04:28:11;;;;;;;11.80;2.90;;;5.00;79.20;;;;;;5034137;28;20113;-67
2022/05/08 04:30:37;;;;;;;18.07;3.57;;;5.10;79.00;;;;;;5049500;28;20089;-67
2022/05/08 04:33:03;;;;;;;14.45;2.50;;;5.10;78.90;;;;;;5043427;28;20044;-67
2022/05/08 04:35:29;;;;;;;14.63;2.77;;;5.20;78.80;;;;;;5037519;28;20472;-67
2022/05/08 04:37:55;;;;;;;9.40;2.50;;;5.30;78.90;;;;;;5037824;28;20311;-67
2022/05/08 04:40:21;;;;;;;13.00;2.60;;;5.30;78.60;;;;;;5101924;28;20032;-67
2022/05/08 04:42:47;;;;;;;13.73;2.47;;;5.40;78.40;;;;;;5089717;28;20044;-67
2022/05/08 04:45:12;;;;;;;11.90;2.90;;;5.40;78.40;;;;;;5057019;28;20056;-67
2022/05/08 04:47:38;;;;;;;11.20;2.73;;;5.50;78.20;;;;;;5059423;28;20048;-67
2022/05/08 04:50:04;;;;;;;16.37;3.33;;;5.60;78.20;;;;;;5059760;28;20097;-67
2022/05/08 04:52:30;;;;;;;8.10;2.38;;;5.70;78.20;;;;;;5040277;28;20077;-67
2022/05/08 04:54:55;;;;;;;5.30;2.10;;;5.80;77.80;;;;;;5006108;28;20083;-67
2022/05/08 04:57:21;;;;;;;14.70;3.00;;;5.90;77.60;;;;;;5085975;28;20040;-67
2022/05/08 04:59:47;;;;;;;11.33;2.57;;;6.00;77.40;;;;;;5033167;28;20101;-67
2022/05/08 05:02:14;;;;;;;9.93;2.30;;;6.10;77.20;;;;;;5030777;28;20485;-67
2022/05/08 05:04:40;;;;;;;9.88;2.72;;;6.30;77.20;;;;;;5069069;28;20048;-67
2022/05/08 05:07:07;;;;;;;9.77;2.77;;;6.40;77.00;;;;;;5046557;28;20467;-67
2022/05/08 05:09:32;;;;;;;8.35;2.58;;;6.60;77.00;;;;;;5053218;28;20086;-67
2022/05/08 05:12:01;;;;;;;9.50;2.10;;;7.10;77.20;;;;;;5051448;28;20467;-67
2022/05/08 05:14:31;;;;;;;12.75;2.38;;;7.90;76.80;;;;;;5042187;28;20052;-67
2022/05/08 05:16:57;;;;;;;14.15;2.30;;;8.80;75.20;;;;;;5095027;28;20063;-67
2022/05/08 05:19:22;;;;;;;11.93;2.07;;;9.50;72.50;;;;;;5088341;28;20503;-67
2022/05/08 05:21:48;;;;;;;14.10;2.60;;;10.10;70.80;;;;;;5063090;28;20061;-67
2022/05/08 05:24:14;;;;;;;6.20;1.93;;;10.50;68.20;;;;;;5064006;28;20036;-67
2022/05/08 05:26:39;;;;;;;9.63;1.93;;;10.90;67.40;;;;;;5092102;28;20052;-67
2022/05/08 05:29:05;;;;;;;9.37;1.90;;;11.10;65.30;;;;;;5059221;28;21405;-67
2022/05/08 05:31:31;;;;;;;9.63;1.97;;;11.30;65.10;;;;;;5040003;28;20157;-67
2022/05/08 05:33:56;;;;;;;8.03;1.73;;;11.40;63.80;;;;;;5050254;28;20291;-67
2022/05/08 05:36:22;;;;;;;8.37;1.50;;;11.30;63.60;;;;;;5070958;28;20044;-67
2022/05/08 05:38:48;;;;;;;5.23;1.80;;;11.00;63.90;;;;;;5035653;28;20085;-67
2022/05/08 05:41:13;;;;;;;12.80;2.37;;;10.90;64.90;;;;;;5068439;28;20098;-67
2022/05/08 05:43:39;;;;;;;10.60;2.13;;;10.90;64.60;;;;;;5028162;28;20032;-67
2022/05/08 05:48:49;;;;;;;9.98;2.30;;;10.40;64.80;;;;;;5046886;28;20052;-67
2022/05/08 05:51:14;;;;;;;8.40;1.73;;;10.20;65.30;;;;;;5062281;28;20392;-67
2022/05/08 05:53:40;;;;;;;8.87;2.03;;;10.00;65.80;;;;;;5065413;28;20365;-67
2022/05/08 05:56:06;;;;;;;6.90;1.50;;;10.00;66.10;;;;;;5018466;28;20063;-67
2022/05/08 05:58:31;;;;;;;9.20;1.97;;;10.00;66.30;;;;;;5034700;28;20044;-67
2022/05/08 06:00:57;;;;;;;7.13;2.50;;;9.90;66.60;;;;;;5054316;28;20040;-67
2022/05/08 06:03:23;;;;;;;8.30;2.13;;;9.90;66.30;;;;;;5029441;28;20044;-67
2022/05/08 06:05:48;;;;;;;5.93;1.57;;;9.80;66.50;;;;;;5044859;28;20094;-67
2022/05/08 06:08:14;;;;;;;6.03;1.47;;;9.90;66.80;;;;;;5034718;28;20035;-67
2022/05/08 06:10:40;;;;;;;11.57;1.77;;;10.20;66.20;;;;;;5056420;28;20514;-67
2022/05/08 06:13:05;;;;;;;9.80;1.87;;;10.60;64.80;;;;;;5044204;28;20089;-67
2022/05/08 06:15:31;;;;;;;9.13;1.80;;;10.80;63.80;;;;;;5044924;28;20068;-67
2022/05/08 06:17:57;;;;;;;6.80;1.77;;;10.80;63.70;;;;;;5040669;28;20421;-67
2022/05/08 06:20:23;;;;;;;9.20;1.60;;;10.70;63.30;;;;;;5078676;28;20564;-67
2022/05/08 06:22:48;;;;;;;10.43;1.73;;;10.80;63.20;;;;;;5027808;28;20037;-67
2022/05/08 06:25:14;;;;;;;15.20;2.13;;;10.80;63.20;;;;;;5089906;28;20032;-67
2022/05/08 06:27:40;;;;;;;8.43;1.73;;;11.00;63.30;;;;;;5030653;28;20080;-67
2022/05/08 06:30:07;;;;;;;7.47;1.57;;;11.40;63.50;;;;;;5036109;28;20109;-67
2022/05/08 06:32:34;;;;;;;11.05;1.77;;;12.40;62.30;;;;;;5076400;28;20053;-67
2022/05/08 06:35:00;;;;;;;8.98;1.42;;;13.20;59.10;;;;;;5044573;28;20040;-67
2022/05/08 06:37:26;;;;;;;6.80;1.73;;;13.70;57.00;;;;;;5023198;28;20615;-67
2022/05/08 06:39:52;;;;;;;7.77;1.40;;;13.90;56.10;;;;;;5067126;28;20047;-67
2022/05/08 06:42:18;;;;;;;8.83;1.40;;;13.90;55.80;;;;;;5046234;28;20135;-67
2022/05/08 06:44:44;;;;;;;7.60;1.47;;;14.20;54.00;;;;;;5059136;28;20537;-67
2022/05/08 06:47:10;;;;;;;7.63;1.07;;;14.50;53.30;;;;;;5049155;28;20381;-67
2022/05/08 06:49:36;;;;;;;9.50;1.17;;;14.90;52.90;;;;;;5040730;28;20377;-67
2022/05/08 06:52:02;;;;;;;6.40;1.70;;;15.10;52.20;;;;;;5042645;28;20036;-67
2022/05/08 06:54:28;;;;;;;8.77;1.47;;;15.10;52.20;;;;;;5065721;28;20321;-67
2022/05/08 06:56:55;;;;;;;7.67;1.53;;;14.70;52.30;;;;;;5052333;28;20424;-67
2022/05/08 07:02:07;;;;;;;9.95;1.33;;;13.70;53.60;;;;;;5043645;28;21282;-68
2022/05/08 07:04:33;;;;;;;7.67;1.53;;;13.50;54.80;;;;;;5062397;28;20074;-68
2022/05/08 07:07:00;;;;;;;8.77;1.57;;;13.40;55.00;;;;;;5073478;28;20672;-67
2022/05/08 07:09:25;;;;;;;7.90;1.37;;;13.30;55.20;;;;;;5096291;28;20316;-67
2022/05/08 07:11:51;;;;;;;11.40;1.53;;;13.10;54.40;;;;;;5033169;28;20287;-67
2022/05/08 07:14:17;;;;;;;9.07;1.43;;;13.00;55.30;;;;;;5023043;28;20040;-67
2022/05/08 07:16:43;;;;;;;6.63;1.00;;;13.00;55.30;;;;;;5027460;28;20102;-67
2022/05/08 07:19:10;;;;;;;9.20;1.23;;;12.90;54.60;;;;;;5067519;28;20040;-67
2022/05/08 07:21:36;;;;;;;7.40;1.67;;;12.90;54.70;;;;;;5083255;28;20278;-66
2022/05/08 07:24:01;;;;;;;6.77;1.20;;;13.10;54.90;;;;;;5036291;28;20283;-66
2022/05/08 07:26:27;;;;;;;7.10;1.27;;;13.20;54.20;;;;;;5018362;28;20274;-66
2022/05/08 07:28:53;;;;;;;7.50;1.13;;;13.40;54.60;;;;;;5032294;28;20079;-65
2022/05/08 07:31:19;;;;;;;10.13;1.30;;;13.50;53.70;;;;;;5083819;28;20424;-65
2022/05/08 07:33:45;;;;;;;5.33;1.17;;;13.70;52.40;;;;;;5053214;28;20044;-65
2022/05/08 07:36:13;;;;;;;10.87;1.67;;;13.70;52.90;;;;;;5064628;28;20048;-66
2022/05/08 07:38:44;;;;;;;7.60;1.80;;;13.80;52.70;;;;;;5048528;28;20036;-66
2022/05/08 07:41:15;;;;;;;8.43;1.50;;;13.70;52.10;;;;;;5048137;28;20801;-66
2022/05/08 07:43:47;;;;;;;8.30;1.33;;;13.80;52.40;;;;;;5080943;28;20275;-66
2022/05/08 07:46:14;;;;;;;9.90;1.40;;;13.80;52.10;;;;;;5053925;28;20328;-66
2022/05/08 07:48:40;;;;;;;7.10;0.90;;;13.90;51.70;;;;;;5033444;28;20290;-66
2022/05/08 07:51:05;;;;;;;7.80;1.20;;;13.70;51.20;;;;;;5049073;28;20286;-66
2022/05/08 07:53:33;;;;;;;9.37;1.40;;;13.50;52.10;;;;;;5069113;28;20567;-66
2022/05/08 07:55:59;;;;;;;6.93;1.20;;;13.50;52.30;;;;;;5051474;28;21335;-66
2022/05/08 07:58:31;;;;;;;12.23;1.30;;;13.60;52.30;;;;;;5082190;28;20763;-66
2022/05/08 08:00:57;;;;;;;8.27;1.37;;;13.70;51.80;;;;;;5034727;28;20289;-66
2022/05/08 08:03:25;;;;;;;8.77;1.60;;;13.70;51.90;;;;;;5032732;28;20282;-66
2022/05/08 08:05:51;;;;;;;5.37;1.03;;;13.70;51.50;;;;;;5083461;28;20282;-66
2022/05/08 08:08:18;;;;;;;8.60;1.30;;;13.70;51.30;;;;;;5081121;28;20330;-66
2022/05/08 08:10:44;;;;;;;12.77;1.40;;;13.80;51.30;;;;;;5049432;28;20299;-66
2022/05/08 08:13:10;;;;;;;9.50;1.50;;;13.90;51.60;;;;;;5033761;28;20282;-66
2022/05/08 08:15:36;;;;;;;8.83;1.43;;;14.10;51.60;;;;;;5053566;28;20616;-66
2022/05/08 08:18:03;;;;;;;11.90;1.77;;;14.20;51.10;;;;;;5035853;28;20303;-66
2022/05/08 08:20:28;;;;;;;7.17;1.30;;;14.10;51.40;;;;;;5032337;28;20310;-66
2022/05/08 08:22:54;;;;;;;9.63;1.53;;;14.00;51.30;;;;;;5066407;28;20313;-66
2022/05/08 08:25:20;;;;;;;8.47;1.20;;;14.00;51.10;;;;;;5050853;28;20051;-66
2022/05/08 08:27:46;;;;;;;6.80;1.40;;;13.90;50.90;;;;;;5047981;28;20047;-66
2022/05/08 08:30:13;;;;;;;8.47;1.73;;;13.70;51.10;;;;;;5046078;28;20286;-66
2022/05/08 08:32:39;;;;;;;10.43;1.57;;;13.70;51.50;;;;;;5083344;28;20036;-66
2022/05/08 08:35:05;;;;;;;11.20;1.67;;;13.70;51.50;;;;;;5036586;28;20294;-66
2022/05/08 08:37:31;;;;;;;6.50;1.20;;;13.80;51.40;;;;;;5036802;28;20035;-66
2022/05/08 08:39:57;;;;;;;10.87;1.73;;;13.90;51.00;;;;;;5031142;28;20282;-66
2022/05/08 08:42:28;;;;;;;7.77;1.30;;;14.00;50.50;;;;;;5050155;28;20408;-66
2022/05/08 08:47:55;;;;;;;9.83;1.60;;;14.20;50.20;;;;;;5056839;28;20761;-66
2022/05/08 08:50:26;;;;;;;10.17;1.93;;;14.40;51.00;;;;;;5084793;28;20354;-66
2022/05/08 08:53:03;;;;;;;8.77;1.53;;;14.60;50.20;;;;;;5052430;28;20436;-66
2022/05/08 08:55:30;;;;;;;8.27;1.13;;;14.70;50.60;;;;;;5052310;28;20274;-66
2022/05/08 08:57:56;;;;;;;10.60;1.63;;;14.60;49.10;;;;;;5086014;28;20314;-66
2022/05/08 09:00:22;;;;;;;9.37;1.50;;;14.20;49.30;;;;;;5086782;28;20790;-66
2022/05/08 09:02:50;;;;;;;7.60;1.17;;;14.00;49.50;;;;;;5053317;28;20032;-66
2022/05/08 09:05:16;;;;;;;5.87;1.00;;;14.00;49.90;;;;;;5086842;28;20045;-66
2022/05/08 09:07:52;;;;;;;9.50;1.67;;;14.00;50.10;;;;;;5064879;28;20286;-66
2022/05/08 09:10:28;;;;;;;4.13;1.57;;;14.10;49.50;;;;;;5033046;28;20375;-66
2022/05/08 09:12:56;;;;;;;11.67;1.50;;;14.20;49.20;;;;;;5050200;28;20274;-66
2022/05/08 09:15:24;;;;;;;9.63;1.80;;;14.40;50.10;;;;;;5056249;28;20283;-66
2022/05/08 09:17:52;;;;;;;7.20;1.50;;;14.50;50.40;;;;;;5061352;28;20319;-66
2022/05/08 09:20:55;;;;;;;7.70;1.53;;;14.60;49.90;;;;;;5083033;28;20348;-66
2022/05/08 09:23:22;;;;;;;8.90;1.47;;;14.80;49.30;;;;;;5018820;28;20297;-66
2022/05/08 09:25:47;;;;;;;6.27;1.53;;;14.90;49.60;;;;;;5052460;28;20550;-66
2022/05/08 09:28:15;;;;;;;9.90;1.47;;;15.00;49.60;;;;;;5069538;28;20337;-66
2022/05/08 09:30:54;;;;;;;8.90;1.50;;;15.10;49.50;;;;;;5044205;28;20499;-66
2022/05/08 09:33:37;;;;;;;9.50;1.80;;;15.10;49.40;;;;;;5057882;28;20837;-66
2022/05/08 09:36:08;;;;;;;9.03;1.87;;;15.00;47.90;;;;;;5055927;28;20816;-66
2022/05/08 09:38:50;;;;;;;9.00;1.60;;;14.90;48.70;;;;;;5093547;28;21103;-66
2022/05/08 09:41:20;;;;;;;9.33;1.90;;;15.00;49.00;;;;;;5052571;28;20299;-66
2022/05/08 09:43:47;;;;;;;9.60;1.83;;;15.00;49.30;;;;;;5039883;28;20876;-66
2022/05/08 09:46:13;;;;;;;5.77;1.57;;;15.10;48.90;;;;;;5079567;28;20299;-66
2022/05/08 09:48:39;;;;;;;8.47;1.50;;;15.20;48.80;;;;;;5031214;28;20283;-66
2022/05/08 09:51:10;;;;;;;7.80;1.50;;;15.20;49.30;;;;;;5042719;28;20043;-66
2022/05/08 09:53:37;;;;;;;6.03;1.53;;;15.30;48.70;;;;;;5053409;28;20306;-66
2022/05/08 09:56:05;;;;;;;9.77;1.60;;;15.30;48.50;;;;;;5063759;28;20377;-66
2022/05/08 09:58:32;;;;;;;8.77;1.40;;;15.40;48.20;;;;;;5043759;28;20299;-66
2022/05/08 10:00:58;;;;;;;9.53;1.90;;;15.40;48.30;;;;;;5054458;28;20350;-66
2022/05/08 10:03:25;;;;;;;9.93;1.87;;;15.30;47.80;;;;;;5037528;28;20302;-66
2022/05/08 10:05:51;;;;;;;8.23;1.50;;;15.30;47.80;;;;;;5097255;28;20286;-66
2022/05/08 10:08:21;;;;;;;6.57;1.10;;;15.20;48.20;;;;;;5036349;28;20298;-66
2022/05/08 10:16:47;;;;;;;8.10;1.30;;;15.10;48.50;;;;;;5033140;28;20793;-66
2022/05/08 10:19:19;;;;;;;14.63;2.03;;;15.10;48.70;;;;;;5047949;28;20330;-66
2022/05/08 10:22:02;;;;;;;8.40;1.40;;;15.20;48.50;;;;;;5061874;28;20282;-66
2022/05/08 10:24:35;;;;;;;6.37;1.37;;;15.10;48.10;;;;;;5041332;28;20759;-66
2022/05/08 10:27:33;;;;;;;7.57;1.87;;;15.00;46.70;;;;;;5067336;28;20289;-66
2022/05/08 10:29:59;;;;;;;9.53;1.53;;;15.00;48.00;;;;;;5049046;28;20294;-66
2022/05/08 10:32:33;;;;;;;8.23;1.67;;;15.00;48.70;;;;;;5042970;28;20291;-66
2022/05/08 10:35:12;;;;;;;5.40;0.98;;;15.20;48.40;;;;;;5086361;28;20044;-66
2022/05/08 10:37:42;;;;;;;8.10;1.40;;;15.30;48.40;;;;;;5074368;28;20041;-66
2022/05/08 10:40:28;;;;;;;9.10;1.70;;;15.40;48.50;;;;;;5084782;28;20283;-66
2022/05/08 10:42:55;;;;;;;11.17;2.00;;;15.50;47.80;;;;;;5048438;28;20290;-66
2022/05/08 10:45:33;;;;;;;8.20;2.17;;;15.40;47.80;;;;;;5049798;28;20290;-66
2022/05/08 10:48:11;;;;;;;5.87;1.27;;;15.40;48.40;;;;;;5051351;28;20294;-66
2022/05/08 10:50:46;;;;;;;6.40;1.70;;;15.30;47.80;;;;;;5049104;28;20301;-66
2022/05/08 10:53:22;;;;;;;;;;;15.40;47.20;;;;;;5083675;28;20927;-66
2022/05/08 10:55:48;;;;;;;;;;;15.30;48.70;;;;;;5057849;28;19924;-66
2022/05/08 10:58:13;;;;;;;7.37;1.27;;;15.40;47.90;;;;;;5080697;28;20372;-66
2022/05/08 11:00:39;;;;;;;7.73;1.80;;;15.50;47.80;;;;;;5023290;28;20059;-66
2022/05/08 11:03:05;;;;;;;11.57;1.90;;;15.60;47.80;;;;;;5058415;28;20423;-66
2022/05/08 11:05:33;;;;;;;8.00;1.30;;;15.60;47.90;;;;;;5060476;28;20480;-66
2022/05/08 11:08:00;;;;;;;6.93;1.43;;;15.70;46.80;;;;;;5064067;28;20048;-66
2022/05/08 11:10:34;;;;;;;9.03;1.30;;;15.70;47.50;;;;;;5048893;28;20291;-66
2022/05/08 11:13:15;;;;;;;10.37;1.83;;;15.70;46.30;;;;;;5085969;28;20279;-66
2022/05/08 11:15:41;;;;;;;8.27;2.07;;;15.70;47.00;;;;;;5038889;28;20298;-66
2022/05/08 11:18:09;;;;;;;8.67;1.60;;;15.70;46.70;;;;;;5053328;28;20306;-66
2022/05/08 11:20:36;;;;;;;7.63;1.20;;;15.70;47.20;;;;;;5062130;28;20397;-66
2022/05/08 11:23:06;;;;;;;8.73;2.07;;;15.70;47.00;;;;;;5042793;28;20376;-66
2022/05/08 11:25:33;;;;;;;7.57;1.80;;;15.80;46.40;;;;;;5039801;28;20282;-66
2022/05/08 11:27:59;;;;;;;11.53;1.83;;;15.80;46.30;;;;;;5011387;28;20346;-66
2022/05/08 11:30:36;;;;;;;10.97;1.70;;;15.90;46.50;;;;;;5050810;28;20286;-66
2022/05/08 11:38:40;;;;;;;5.63;1.52;;;16.00;46.60;;;;;;5064394;28;20310;-66
2022/05/08 11:41:15;;;;;;;10.07;1.50;;;16.00;46.50;;;;;;5082080;28;20039;-65
2022/05/08 11:43:47;;;;;;;7.43;1.27;;;16.00;46.50;;;;;;5080670;28;20286;-66
2022/05/08 11:46:17;;;;;;;10.33;1.97;;;16.00;46.50;;;;;;5034472;28;20202;-66
2022/05/08 11:48:46;;;;;;;7.20;1.30;;;16.00;46.80;;;;;;5045780;28;20784;-66
2022/05/08 11:51:13;;;;;;;9.93;1.87;;;16.10;46.40;;;;;;5040828;28;20347;-66
2022/05/08 11:53:47;;;;;;;7.13;1.43;;;16.20;46.60;;;;;;5091145;28;20347;-66
2022/05/08 11:56:26;;;;;;;6.07;1.40;;;16.30;46.60;;;;;;5055537;28;20869;-67
2022/05/08 11:58:56;;;;;;;7.33;1.80;;;16.40;44.60;;;;;;5080756;28;20317;-66
2022/05/08 12:01:25;;;;;;;8.97;2.00;;;16.30;44.40;;;;;;5044616;28;20301;-66
2022/05/08 12:03:52;;;;;;;8.47;2.13;;;16.30;44.50;;;;;;5050478;28;20278;-66
2022/05/08 12:06:18;;;;;;;5.90;1.60;;;16.40;44.40;;;;;;5035218;28;20294;-66
2022/05/08 12:08:43;;;;;;;9.67;1.47;;;16.40;44.60;;;;;;5051449;28;20282;-66
2022/05/08 12:11:28;;;;;;;4.53;1.83;;;16.50;44.90;;;;;;5031892;28;20076;-66
2022/05/08 12:14:01;;;;;;;9.57;1.83;;;16.50;44.20;;;;;;5048717;28;20101;-66
2022/05/08 12:16:27;;;;;;;7.90;1.60;;;16.50;45.30;;;;;;5030279;28;20518;-66
2022/05/08 12:19:15;;;;;;;7.23;1.80;;;16.50;45.10;;;;;;5035419;28;20305;-66
2022/05/08 12:21:43;;;;;;;8.43;2.07;;;16.60;45.20;;;;;;5054474;28;20396;-66
2022/05/08 12:24:14;;;;;;;11.07;1.60;;;16.70;45.40;;;;;;5017440;28;20273;-66
2022/05/08 12:26:42;;;;;;;8.63;1.67;;;16.90;45.00;;;;;;5032228;28;20286;-66
2022/05/08 12:29:18;;;;;;;7.10;2.03;;;17.00;45.40;;;;;;5063499;28;20794;-66
2022/05/08 12:31:45;;;;;;;6.47;1.70;;;17.10;43.70;;;;;;5049088;28;20286;-66
2022/05/08 12:34:12;;;;;;;11.33;1.87;;;17.10;42.60;;;;;;5053703;28;20298;-66
2022/05/08 12:36:42;;;;;;;10.53;1.83;;;17.00;43.70;;;;;;5035863;28;20283;-66
2022/05/08 12:39:09;;;;;;;6.17;1.33;;;17.00;43.80;;;;;;5026656;28;21112;-66
2022/05/08 12:41:36;;;;;;;9.67;1.67;;;17.10;44.20;;;;;;5081306;28;20370;-66
2022/05/08 12:44:02;;;;;;;10.73;1.83;;;17.20;44.00;;;;;;5050362;28;20275;-66
2022/05/08 12:46:28;;;;;;;6.73;1.77;;;17.20;42.90;;;;;;5073238;28;20381;-66
2022/05/08 12:49:00;;;;;;;10.63;1.57;;;17.20;42.70;;;;;;5040483;28;20377;-66
2022/05/08 12:51:27;;;;;;;7.93;1.20;;;17.20;43.10;;;;;;5015304;28;20428;-66
2022/05/08 12:53:53;;;;;;;5.87;1.80;;;17.30;43.20;;;;;;5032591;28;20291;-66
2022/05/08 12:56:19;;;;;;;7.50;1.47;;;17.20;43.20;;;;;;5044128;28;20356;-66
2022/05/08 13:01:30;;;;;;;6.63;1.83;;;17.20;43.90;;;;;;5066605;28;20287;-66
2022/05/08 13:03:55;;;;;;;10.03;2.10;;;17.20;43.20;;;;;;5065542;28;20594;-66
2022/05/08 13:06:21;;;;;;;6.63;1.40;;;17.30;42.80;;;;;;5034764;28;20032;-66
2022/05/08 13:08:47;;;;;;;8.40;1.60;;;17.20;43.60;;;;;;5084104;28;20059;-66
2022/05/08 13:11:12;;;;;;;8.20;1.97;;;17.30;42.70;;;;;;5035865;28;20424;-66
2022/05/08 13:13:38;;;;;;;10.73;1.40;;;17.30;43.40;;;;;;5032031;28;20041;-66
2022/05/08 13:16:05;;;;;;;9.13;1.43;;;17.30;43.30;;;;;;5027603;28;20150;-66
2022/05/08 13:18:31;;;;;;;8.27;2.00;;;17.40;42.80;;;;;;5031507;28;21312;-66
2022/05/08 13:20:57;;;;;;;8.10;2.03;;;17.50;43.20;;;;;;5068633;28;20302;-66
2022/05/08 13:23:22;;;;;;;7.40;1.83;;;17.60;42.50;;;;;;5054653;28;20032;-66